sensor_id;sensor_type;location;lat;lon;timestamp;P1;durP1;ratioP1;P2;durP2;ratioP2
5690;SDS011;2870;42.680;23.364;2023-08-30T00:01:59;22.07;;;13.57;;
5690;SDS011;2870;42.680;23.364;2023-08-30T00:04:26;20.60;;;13.50;;
5690;SDS011;2870;42.680;23.364;2023-08-30T00:06:53;21.97;;;13.63;;
5690;SDS011;2870;42.680;23.364;2023-08-30T00:09:20;21.20;;;13.03;;
5690;SDS011;2870;42.680;23.364;2023-08-30T00:11:47;25.60;;;13.50;;
5690;SDS011;2870;42.680;23.364;2023-08-30T00:14:13;17.17;;;13.27;;
5690;SDS011;2870;42.680;23.364;2023-08-30T00:16:41;19.63;;;12.20;;
5690;SDS011;2870;42.680;23.364;2023-08-30T00:19:08;20.30;;;13.43;;
5690;SDS011;2870;42.680;23.364;2023-08-30T00:21:35;21.40;;;11.63;;
5690;SDS011;2870;42.680;23.364;2023-08-30T00:24:02;25.03;;;12.10;;
5690;SDS011;2870;42.680;23.364;2023-08-30T00:26:29;18.47;;;11.80;;
5690;SDS011;2870;42.680;23.364;2023-08-30T00:28:56;16.50;;;12.00;;
5690;SDS011;2870;42.680;23.364;2023-08-30T00:31:23;18.00;;;11.70;;
5690;SDS011;2870;42.680;23.364;2023-08-30T00:33:51;17.53;;;11.97;;
5690;SDS011;2870;42.680;23.364;2023-08-30T00:36:18;15.07;;;10.97;;
5690;SDS011;2870;42.680;23.364;2023-08-30T00:38:44;17.20;;;10.70;;
5690;SDS011;2870;42.680;23.364;2023-08-30T00:41:12;16.43;;;9.93;;
5690;SDS011;2870;42.680;23.364;2023-08-30T00:43:39;15.40;;;9.17;;
5690;SDS011;2870;42.680;23.364;2023-08-30T00:46:06;15.33;;;9.40;;
5690;SDS011;2870;42.680;23.364;2023-08-30T00:48:32;17.17;;;10.30;;
5690;SDS011;2870;42.680;23.364;2023-08-30T00:51:01;19.40;;;9.77;;
5690;SDS011;2870;42.680;23.364;2023-08-30T00:53:27;19.80;;;10.10;;
5690;SDS011;2870;42.680;23.364;2023-08-30T00:55:54;16.00;;;10.10;;
5690;SDS011;2870;42.680;23.364;2023-08-30T00:58:21;16.60;;;9.80;;
5690;SDS011;2870;42.680;23.364;2023-08-30T01:00:48;16.77;;;9.90;;
5690;SDS011;2870;42.680;23.364;2023-08-30T01:03:16;15.83;;;9.53;;
5690;SDS011;2870;42.680;23.364;2023-08-30T01:05:42;21.60;;;9.87;;
5690;SDS011;2870;42.680;23.364;2023-08-30T01:08:10;13.93;;;9.43;;
5690;SDS011;2870;42.680;23.364;2023-08-30T01:10:41;14.57;;;8.80;;
5690;SDS011;2870;42.680;23.364;2023-08-30T01:13:18;16.10;;;9.00;;
5690;SDS011;2870;42.680;23.364;2023-08-30T01:15:47;17.40;;;9.37;;
5690;SDS011;2870;42.680;23.364;2023-08-30T01:18:15;21.53;;;9.67;;
5690;SDS011;2870;42.680;23.364;2023-08-30T01:20:45;15.77;;;8.93;;
5690;SDS011;2870;42.680;23.364;2023-08-30T01:23:17;18.23;;;9.70;;
5690;SDS011;2870;42.680;23.364;2023-08-30T01:25:53;13.10;;;9.03;;
5690;SDS011;2870;42.680;23.364;2023-08-30T01:28:29;19.10;;;9.47;;
5690;SDS011;2870;42.680;23.364;2023-08-30T01:30:58;18.37;;;8.93;;
5690;SDS011;2870;42.680;23.364;2023-08-30T01:33:25;18.00;;;9.40;;
5690;SDS011;2870;42.680;23.364;2023-08-30T01:35:53;18.13;;;9.00;;
5690;SDS011;2870;42.680;23.364;2023-08-30T01:38:21;19.90;;;9.00;;
5690;SDS011;2870;42.680;23.364;2023-08-30T01:40:50;15.63;;;9.30;;
5690;SDS011;2870;42.680;23.364;2023-08-30T01:43:18;23.30;;;10.50;;
5690;SDS011;2870;42.680;23.364;2023-08-30T01:45:48;22.40;;;9.03;;
5690;SDS011;2870;42.680;23.364;2023-08-30T01:48:15;15.30;;;9.00;;
5690;SDS011;2870;42.680;23.364;2023-08-30T01:50:43;18.40;;;9.80;;
5690;SDS011;2870;42.680;23.364;2023-08-30T01:53:11;16.70;;;9.30;;
5690;SDS011;2870;42.680;23.364;2023-08-30T01:55:39;11.73;;;8.83;;
5690;SDS011;2870;42.680;23.364;2023-08-30T01:58:07;22.47;;;8.90;;
5690;SDS011;2870;42.680;23.364;2023-08-30T02:03:29;16.70;;;9.67;;
5690;SDS011;2870;42.680;23.364;2023-08-30T02:05:57;14.40;;;9.00;;
5690;SDS011;2870;42.680;23.364;2023-08-30T02:08:33;19.30;;;9.63;;
5690;SDS011;2870;42.680;23.364;2023-08-30T02:11:06;13.93;;;8.73;;
5690;SDS011;2870;42.680;23.364;2023-08-30T02:13:39;13.07;;;9.57;;
5690;SDS011;2870;42.680;23.364;2023-08-30T02:16:08;21.13;;;9.40;;
5690;SDS011;2870;42.680;23.364;2023-08-30T02:18:37;14.93;;;9.40;;
5690;SDS011;2870;42.680;23.364;2023-08-30T02:21:05;14.33;;;9.10;;
5690;SDS011;2870;42.680;23.364;2023-08-30T02:23:32;18.37;;;10.30;;
5690;SDS011;2870;42.680;23.364;2023-08-30T02:25:59;20.40;;;9.77;;
5690;SDS011;2870;42.680;23.364;2023-08-30T02:28:28;15.30;;;8.93;;
5690;SDS011;2870;42.680;23.364;2023-08-30T02:30:55;16.43;;;9.20;;
5690;SDS011;2870;42.680;23.364;2023-08-30T02:33:21;14.10;;;9.30;;
5690;SDS011;2870;42.680;23.364;2023-08-30T02:35:49;16.13;;;9.83;;
5690;SDS011;2870;42.680;23.364;2023-08-30T02:38:16;15.00;;;9.13;;
5690;SDS011;2870;42.680;23.364;2023-08-30T02:40:43;17.60;;;9.30;;
5690;SDS011;2870;42.680;23.364;2023-08-30T02:43:10;15.27;;;9.20;;
5690;SDS011;2870;42.680;23.364;2023-08-30T02:45:36;18.73;;;9.30;;
5690;SDS011;2870;42.680;23.364;2023-08-30T02:48:03;13.87;;;8.53;;
5690;SDS011;2870;42.680;23.364;2023-08-30T02:50:31;14.97;;;10.47;;
5690;SDS011;2870;42.680;23.364;2023-08-30T02:52:59;15.50;;;10.23;;
5690;SDS011;2870;42.680;23.364;2023-08-30T02:55:26;18.97;;;11.50;;
5690;SDS011;2870;42.680;23.364;2023-08-30T02:57:52;16.90;;;9.70;;
5690;SDS011;2870;42.680;23.364;2023-08-30T03:00:19;17.97;;;9.30;;
5690;SDS011;2870;42.680;23.364;2023-08-30T03:02:46;16.03;;;9.10;;
5690;SDS011;2870;42.680;23.364;2023-08-30T03:05:13;23.97;;;10.30;;
5690;SDS011;2870;42.680;23.364;2023-08-30T03:07:40;18.47;;;10.33;;
5690;SDS011;2870;42.680;23.364;2023-08-30T03:10:09;18.23;;;9.77;;
5690;SDS011;2870;42.680;23.364;2023-08-30T03:12:36;17.03;;;10.07;;
5690;SDS011;2870;42.680;23.364;2023-08-30T03:15:03;13.40;;;9.80;;
5690;SDS011;2870;42.680;23.364;2023-08-30T03:17:31;18.40;;;10.67;;
5690;SDS011;2870;42.680;23.364;2023-08-30T03:19:57;20.83;;;10.43;;
5690;SDS011;2870;42.680;23.364;2023-08-30T03:22:25;22.90;;;9.73;;
5690;SDS011;2870;42.680;23.364;2023-08-30T03:24:51;22.50;;;10.73;;
5690;SDS011;2870;42.680;23.364;2023-08-30T03:27:20;18.73;;;10.00;;
5690;SDS011;2870;42.680;23.364;2023-08-30T03:29:46;18.33;;;11.30;;
5690;SDS011;2870;42.680;23.364;2023-08-30T03:32:14;16.77;;;10.73;;
5690;SDS011;2870;42.680;23.364;2023-08-30T03:34:43;22.67;;;11.90;;
5690;SDS011;2870;42.680;23.364;2023-08-30T03:37:10;24.17;;;12.30;;
5690;SDS011;2870;42.680;23.364;2023-08-30T03:39:37;20.50;;;11.73;;
5690;SDS011;2870;42.680;23.364;2023-08-30T03:42:04;18.50;;;11.67;;
5690;SDS011;2870;42.680;23.364;2023-08-30T03:44:33;19.80;;;11.53;;
5690;SDS011;2870;42.680;23.364;2023-08-30T03:46:59;20.60;;;12.13;;
5690;SDS011;2870;42.680;23.364;2023-08-30T03:49:27;22.33;;;13.20;;
5690;SDS011;2870;42.680;23.364;2023-08-30T03:51:54;25.93;;;14.00;;
5690;SDS011;2870;42.680;23.364;2023-08-30T03:54:21;21.00;;;12.57;;
5690;SDS011;2870;42.680;23.364;2023-08-30T03:56:48;18.80;;;12.30;;
5690;SDS011;2870;42.680;23.364;2023-08-30T03:59:15;21.20;;;12.80;;
5690;SDS011;2870;42.680;23.364;2023-08-30T04:01:43;21.63;;;13.27;;
5690;SDS011;2870;42.680;23.364;2023-08-30T04:04:10;25.07;;;13.30;;
5690;SDS011;2870;42.680;23.364;2023-08-30T04:06:37;22.83;;;14.20;;
5690;SDS011;2870;42.680;23.364;2023-08-30T04:09:04;30.53;;;13.70;;
5690;SDS011;2870;42.680;23.364;2023-08-30T04:11:31;26.33;;;15.70;;
5690;SDS011;2870;42.680;23.364;2023-08-30T04:13:58;21.60;;;14.03;;
5690;SDS011;2870;42.680;23.364;2023-08-30T04:16:25;22.63;;;14.73;;
5690;SDS011;2870;42.680;23.364;2023-08-30T04:18:53;21.60;;;14.40;;
5690;SDS011;2870;42.680;23.364;2023-08-30T04:21:20;20.93;;;11.47;;
5690;SDS011;2870;42.680;23.364;2023-08-30T04:23:46;20.73;;;11.53;;
5690;SDS011;2870;42.680;23.364;2023-08-30T04:26:13;21.30;;;12.17;;
5690;SDS011;2870;42.680;23.364;2023-08-30T04:28:40;21.23;;;13.10;;
5690;SDS011;2870;42.680;23.364;2023-08-30T04:31:06;22.90;;;12.63;;
5690;SDS011;2870;42.680;23.364;2023-08-30T04:33:33;26.77;;;12.60;;
5690;SDS011;2870;42.680;23.364;2023-08-30T04:36:01;18.90;;;10.77;;
5690;SDS011;2870;42.680;23.364;2023-08-30T04:38:29;22.60;;;12.47;;
5690;SDS011;2870;42.680;23.364;2023-08-30T04:40:56;18.17;;;12.40;;
5690;SDS011;2870;42.680;23.364;2023-08-30T04:43:24;17.30;;;11.30;;
5690;SDS011;2870;42.680;23.364;2023-08-30T04:45:51;18.03;;;11.43;;
5690;SDS011;2870;42.680;23.364;2023-08-30T04:48:18;19.63;;;11.70;;
5690;SDS011;2870;42.680;23.364;2023-08-30T04:50:44;24.37;;;12.07;;
5690;SDS011;2870;42.680;23.364;2023-08-30T04:53:12;17.63;;;11.73;;
5690;SDS011;2870;42.680;23.364;2023-08-30T04:55:39;19.73;;;12.17;;
5690;SDS011;2870;42.680;23.364;2023-08-30T04:58:06;26.00;;;12.40;;
5690;SDS011;2870;42.680;23.364;2023-08-30T05:00:33;28.20;;;13.80;;
5690;SDS011;2870;42.680;23.364;2023-08-30T05:03:00;23.00;;;12.87;;
5690;SDS011;2870;42.680;23.364;2023-08-30T05:05:28;28.40;;;11.60;;
5690;SDS011;2870;42.680;23.364;2023-08-30T05:07:54;27.77;;;12.90;;
5690;SDS011;2870;42.680;23.364;2023-08-30T05:10:22;23.90;;;12.87;;
5690;SDS011;2870;42.680;23.364;2023-08-30T05:12:49;22.03;;;13.20;;
5690;SDS011;2870;42.680;23.364;2023-08-30T05:15:17;19.57;;;12.10;;
5690;SDS011;2870;42.680;23.364;2023-08-30T05:17:43;28.30;;;12.17;;
5690;SDS011;2870;42.680;23.364;2023-08-30T05:20:10;20.63;;;12.47;;
5690;SDS011;2870;42.680;23.364;2023-08-30T05:22:37;24.03;;;12.47;;
5690;SDS011;2870;42.680;23.364;2023-08-30T05:25:04;31.63;;;12.33;;
5690;SDS011;2870;42.680;23.364;2023-08-30T05:27:32;21.63;;;12.30;;
5690;SDS011;2870;42.680;23.364;2023-08-30T05:29:59;26.00;;;12.87;;
5690;SDS011;2870;42.680;23.364;2023-08-30T05:32:26;26.00;;;13.43;;
5690;SDS011;2870;42.680;23.364;2023-08-30T05:34:53;25.53;;;11.77;;
5690;SDS011;2870;42.680;23.364;2023-08-30T05:37:19;20.20;;;11.47;;
5690;SDS011;2870;42.680;23.364;2023-08-30T05:39:46;20.00;;;11.67;;
5690;SDS011;2870;42.680;23.364;2023-08-30T05:42:13;23.10;;;11.67;;
5690;SDS011;2870;42.680;23.364;2023-08-30T05:44:41;22.50;;;10.30;;
5690;SDS011;2870;42.680;23.364;2023-08-30T05:47:08;16.77;;;8.80;;
5690;SDS011;2870;42.680;23.364;2023-08-30T05:49:39;18.50;;;8.20;;
5690;SDS011;2870;42.680;23.364;2023-08-30T05:52:06;17.63;;;7.60;;
5690;SDS011;2870;42.680;23.364;2023-08-30T05:54:33;12.37;;;7.10;;
5690;SDS011;2870;42.680;23.364;2023-08-30T05:57:00;13.50;;;6.90;;
5690;SDS011;2870;42.680;23.364;2023-08-30T05:59:26;17.97;;;6.70;;
5690;SDS011;2870;42.680;23.364;2023-08-30T06:01:55;16.83;;;6.20;;
5690;SDS011;2870;42.680;23.364;2023-08-30T06:04:22;16.13;;;7.00;;
5690;SDS011;2870;42.680;23.364;2023-08-30T06:06:49;15.20;;;6.87;;
5690;SDS011;2870;42.680;23.364;2023-08-30T06:09:15;12.70;;;5.77;;
5690;SDS011;2870;42.680;23.364;2023-08-30T06:11:43;11.90;;;6.00;;
5690;SDS011;2870;42.680;23.364;2023-08-30T06:14:09;14.10;;;6.33;;
5690;SDS011;2870;42.680;23.364;2023-08-30T06:16:36;16.00;;;6.60;;
5690;SDS011;2870;42.680;23.364;2023-08-30T06:19:04;9.90;;;6.10;;
5690;SDS011;2870;42.680;23.364;2023-08-30T06:21:31;11.90;;;6.23;;
5690;SDS011;2870;42.680;23.364;2023-08-30T06:23:58;12.10;;;6.07;;
5690;SDS011;2870;42.680;23.364;2023-08-30T06:26:24;15.03;;;6.83;;
5690;SDS011;2870;42.680;23.364;2023-08-30T06:28:51;12.30;;;6.87;;
5690;SDS011;2870;42.680;23.364;2023-08-30T06:31:18;8.90;;;5.93;;
5690;SDS011;2870;42.680;23.364;2023-08-30T06:33:45;10.60;;;6.20;;
5690;SDS011;2870;42.680;23.364;2023-08-30T06:36:14;15.53;;;6.23;;
5690;SDS011;2870;42.680;23.364;2023-08-30T06:38:42;15.67;;;7.50;;
5690;SDS011;2870;42.680;23.364;2023-08-30T06:41:09;18.27;;;9.30;;
5690;SDS011;2870;42.680;23.364;2023-08-30T06:43:37;22.37;;;10.87;;
5690;SDS011;2870;42.680;23.364;2023-08-30T06:46:03;21.33;;;9.93;;
5690;SDS011;2870;42.680;23.364;2023-08-30T06:48:30;16.83;;;9.67;;
5690;SDS011;2870;42.680;23.364;2023-08-30T06:50:57;20.27;;;10.70;;
5690;SDS011;2870;42.680;23.364;2023-08-30T06:53:26;18.87;;;10.13;;
5690;SDS011;2870;42.680;23.364;2023-08-30T06:55:56;20.53;;;9.23;;
5690;SDS011;2870;42.680;23.364;2023-08-30T06:58:23;15.30;;;8.27;;
5690;SDS011;2870;42.680;23.364;2023-08-30T07:00:50;16.50;;;8.57;;
5690;SDS011;2870;42.680;23.364;2023-08-30T07:03:17;24.07;;;8.97;;
5690;SDS011;2870;42.680;23.364;2023-08-30T07:05:44;14.90;;;8.47;;
5690;SDS011;2870;42.680;23.364;2023-08-30T07:08:12;14.07;;;6.60;;
5690;SDS011;2870;42.680;23.364;2023-08-30T07:10:41;12.97;;;6.73;;
5690;SDS011;2870;42.680;23.364;2023-08-30T07:13:08;17.43;;;7.37;;
5690;SDS011;2870;42.680;23.364;2023-08-30T07:15:37;13.60;;;6.90;;
5690;SDS011;2870;42.680;23.364;2023-08-30T07:18:04;14.33;;;8.40;;
5690;SDS011;2870;42.680;23.364;2023-08-30T07:20:31;14.57;;;8.20;;
5690;SDS011;2870;42.680;23.364;2023-08-30T07:22:58;16.67;;;8.90;;
5690;SDS011;2870;42.680;23.364;2023-08-30T07:25:25;18.23;;;8.80;;
5690;SDS011;2870;42.680;23.364;2023-08-30T07:27:53;16.83;;;8.20;;
5690;SDS011;2870;42.680;23.364;2023-08-30T07:30:20;14.43;;;7.83;;
5690;SDS011;2870;42.680;23.364;2023-08-30T07:32:46;15.57;;;8.67;;
5690;SDS011;2870;42.680;23.364;2023-08-30T07:35:13;21.87;;;8.10;;
5690;SDS011;2870;42.680;23.364;2023-08-30T07:37:40;20.00;;;8.57;;
5690;SDS011;2870;42.680;23.364;2023-08-30T07:40:07;17.03;;;9.20;;
5690;SDS011;2870;42.680;23.364;2023-08-30T07:42:35;16.40;;;8.13;;
5690;SDS011;2870;42.680;23.364;2023-08-30T07:45:03;23.30;;;9.20;;
5690;SDS011;2870;42.680;23.364;2023-08-30T07:47:31;14.43;;;7.13;;
5690;SDS011;2870;42.680;23.364;2023-08-30T07:49:57;17.17;;;7.57;;
5690;SDS011;2870;42.680;23.364;2023-08-30T07:52:24;12.63;;;7.07;;
5690;SDS011;2870;42.680;23.364;2023-08-30T07:54:51;20.20;;;7.43;;
5690;SDS011;2870;42.680;23.364;2023-08-30T07:57:18;15.50;;;6.83;;
5690;SDS011;2870;42.680;23.364;2023-08-30T07:59:44;17.50;;;7.37;;
5690;SDS011;2870;42.680;23.364;2023-08-30T08:02:12;15.77;;;7.03;;
5690;SDS011;2870;42.680;23.364;2023-08-30T08:04:39;17.47;;;6.53;;
5690;SDS011;2870;42.680;23.364;2023-08-30T08:07:06;10.77;;;6.40;;
5690;SDS011;2870;42.680;23.364;2023-08-30T08:09:33;16.67;;;5.93;;
5690;SDS011;2870;42.680;23.364;2023-08-30T08:11:59;15.63;;;6.13;;
5690;SDS011;2870;42.680;23.364;2023-08-30T08:14:26;11.30;;;6.53;;
5690;SDS011;2870;42.680;23.364;2023-08-30T08:16:53;9.53;;;5.63;;
5690;SDS011;2870;42.680;23.364;2023-08-30T08:19:21;14.53;;;5.03;;
5690;SDS011;2870;42.680;23.364;2023-08-30T08:21:48;11.43;;;4.80;;
5690;SDS011;2870;42.680;23.364;2023-08-30T08:24:15;13.47;;;4.60;;
5690;SDS011;2870;42.680;23.364;2023-08-30T08:26:42;10.50;;;4.63;;
5690;SDS011;2870;42.680;23.364;2023-08-30T08:29:08;13.13;;;4.57;;
5690;SDS011;2870;42.680;23.364;2023-08-30T08:31:35;9.20;;;3.90;;
5690;SDS011;2870;42.680;23.364;2023-08-30T08:34:07;14.90;;;4.40;;
5690;SDS011;2870;42.680;23.364;2023-08-30T08:36:36;16.37;;;4.33;;
5690;SDS011;2870;42.680;23.364;2023-08-30T08:39:03;9.93;;;4.30;;
5690;SDS011;2870;42.680;23.364;2023-08-30T08:41:33;9.40;;;4.83;;
5690;SDS011;2870;42.680;23.364;2023-08-30T08:44:04;16.33;;;4.43;;
5690;SDS011;2870;42.680;23.364;2023-08-30T08:46:32;14.03;;;4.67;;
5690;SDS011;2870;42.680;23.364;2023-08-30T08:49:01;8.63;;;3.77;;
5690;SDS011;2870;42.680;23.364;2023-08-30T08:51:34;9.27;;;3.80;;
5690;SDS011;2870;42.680;23.364;2023-08-30T08:54:03;11.30;;;4.43;;
5690;SDS011;2870;42.680;23.364;2023-08-30T08:56:31;11.33;;;4.00;;
5690;SDS011;2870;42.680;23.364;2023-08-30T08:58:59;10.00;;;3.90;;
5690;SDS011;2870;42.680;23.364;2023-08-30T09:01:26;10.70;;;3.90;;
5690;SDS011;2870;42.680;23.364;2023-08-30T09:03:54;13.20;;;5.20;;
5690;SDS011;2870;42.680;23.364;2023-08-30T09:06:21;18.50;;;4.10;;
5690;SDS011;2870;42.680;23.364;2023-08-30T09:08:49;9.27;;;4.93;;
5690;SDS011;2870;42.680;23.364;2023-08-30T09:11:16;14.47;;;4.60;;
5690;SDS011;2870;42.680;23.364;2023-08-30T09:13:43;8.30;;;4.23;;
5690;SDS011;2870;42.680;23.364;2023-08-30T09:16:13;14.07;;;4.40;;
5690;SDS011;2870;42.680;23.364;2023-08-30T09:18:40;13.10;;;4.50;;
5690;SDS011;2870;42.680;23.364;2023-08-30T09:21:07;12.37;;;4.00;;
5690;SDS011;2870;42.680;23.364;2023-08-30T09:23:35;23.83;;;5.30;;
5690;SDS011;2870;42.680;23.364;2023-08-30T09:26:03;13.63;;;5.27;;
5690;SDS011;2870;42.680;23.364;2023-08-30T09:28:31;23.70;;;5.77;;
5690;SDS011;2870;42.680;23.364;2023-08-30T09:30:58;10.40;;;4.27;;
5690;SDS011;2870;42.680;23.364;2023-08-30T09:33:34;10.37;;;4.40;;
5690;SDS011;2870;42.680;23.364;2023-08-30T09:36:01;13.03;;;4.93;;
5690;SDS011;2870;42.680;23.364;2023-08-30T09:38:28;10.53;;;4.63;;
5690;SDS011;2870;42.680;23.364;2023-08-30T09:41:03;11.33;;;4.70;;
5690;SDS011;2870;42.680;23.364;2023-08-30T09:43:31;12.60;;;4.43;;
5690;SDS011;2870;42.680;23.364;2023-08-30T09:46:02;9.03;;;4.20;;
5690;SDS011;2870;42.680;23.364;2023-08-30T09:48:30;11.47;;;4.77;;
5690;SDS011;2870;42.680;23.364;2023-08-30T09:50:58;8.63;;;4.40;;
5690;SDS011;2870;42.680;23.364;2023-08-30T09:53:26;9.93;;;4.47;;
5690;SDS011;2870;42.680;23.364;2023-08-30T09:55:53;11.33;;;5.60;;
5690;SDS011;2870;42.680;23.364;2023-08-30T09:58:22;9.80;;;5.10;;
5690;SDS011;2870;42.680;23.364;2023-08-30T10:00:50;10.87;;;5.23;;
5690;SDS011;2870;42.680;23.364;2023-08-30T10:03:17;15.37;;;6.23;;
5690;SDS011;2870;42.680;23.364;2023-08-30T10:05:44;11.43;;;5.20;;
5690;SDS011;2870;42.680;23.364;2023-08-30T10:08:13;8.97;;;4.93;;
5690;SDS011;2870;42.680;23.364;2023-08-30T10:10:40;17.50;;;5.37;;
5690;SDS011;2870;42.680;23.364;2023-08-30T10:13:07;15.80;;;4.90;;
5690;SDS011;2870;42.680;23.364;2023-08-30T10:15:38;12.30;;;5.80;;
5690;SDS011;2870;42.680;23.364;2023-08-30T10:18:09;11.63;;;5.03;;
5690;SDS011;2870;42.680;23.364;2023-08-30T10:20:40;12.00;;;5.07;;
5690;SDS011;2870;42.680;23.364;2023-08-30T10:23:08;8.77;;;4.47;;
5690;SDS011;2870;42.680;23.364;2023-08-30T10:25:36;22.00;;;5.40;;
5690;SDS011;2870;42.680;23.364;2023-08-30T10:28:04;13.20;;;6.17;;
5690;SDS011;2870;42.680;23.364;2023-08-30T10:30:32;13.00;;;6.03;;
5690;SDS011;2870;42.680;23.364;2023-08-30T10:33:00;10.77;;;5.70;;
5690;SDS011;2870;42.680;23.364;2023-08-30T10:35:28;11.17;;;5.57;;
5690;SDS011;2870;42.680;23.364;2023-08-30T10:37:55;11.87;;;5.13;;
5690;SDS011;2870;42.680;23.364;2023-08-30T10:40:22;17.20;;;6.00;;
5690;SDS011;2870;42.680;23.364;2023-08-30T10:42:58;14.60;;;5.73;;
5690;SDS011;2870;42.680;23.364;2023-08-30T10:45:26;16.13;;;6.13;;
5690;SDS011;2870;42.680;23.364;2023-08-30T10:47:54;10.10;;;5.77;;
5690;SDS011;2870;42.680;23.364;2023-08-30T10:50:28;9.63;;;5.50;;
5690;SDS011;2870;42.680;23.364;2023-08-30T10:52:56;11.67;;;5.43;;
5690;SDS011;2870;42.680;23.364;2023-08-30T10:55:23;12.53;;;5.37;;
5690;SDS011;2870;42.680;23.364;2023-08-30T10:57:57;12.63;;;5.70;;
5690;SDS011;2870;42.680;23.364;2023-08-30T11:00:27;10.60;;;5.93;;
5690;SDS011;2870;42.680;23.364;2023-08-30T11:02:54;12.90;;;5.77;;
5690;SDS011;2870;42.680;23.364;2023-08-30T11:05:22;11.17;;;6.37;;
5690;SDS011;2870;42.680;23.364;2023-08-30T11:07:51;11.43;;;6.10;;
5690;SDS011;2870;42.680;23.364;2023-08-30T11:10:19;12.97;;;5.70;;
5690;SDS011;2870;42.680;23.364;2023-08-30T11:12:47;11.40;;;6.00;;
5690;SDS011;2870;42.680;23.364;2023-08-30T11:15:15;11.87;;;6.83;;
5690;SDS011;2870;42.680;23.364;2023-08-30T11:17:42;9.47;;;5.87;;
5690;SDS011;2870;42.680;23.364;2023-08-30T11:20:10;16.23;;;6.10;;
5690;SDS011;2870;42.680;23.364;2023-08-30T11:22:38;13.10;;;6.37;;
5690;SDS011;2870;42.680;23.364;2023-08-30T11:25:09;16.47;;;5.93;;
5690;SDS011;2870;42.680;23.364;2023-08-30T11:27:37;14.20;;;6.00;;
5690;SDS011;2870;42.680;23.364;2023-08-30T11:30:05;10.80;;;6.37;;
5690;SDS011;2870;42.680;23.364;2023-08-30T11:32:33;13.10;;;6.20;;
5690;SDS011;2870;42.680;23.364;2023-08-30T11:35:01;11.37;;;5.50;;
5690;SDS011;2870;42.680;23.364;2023-08-30T11:37:28;10.90;;;5.67;;
5690;SDS011;2870;42.680;23.364;2023-08-30T11:39:55;12.73;;;5.77;;
5690;SDS011;2870;42.680;23.364;2023-08-30T11:42:23;11.40;;;6.10;;
5690;SDS011;2870;42.680;23.364;2023-08-30T11:44:51;14.70;;;6.37;;
5690;SDS011;2870;42.680;23.364;2023-08-30T11:47:19;9.20;;;5.93;;
5690;SDS011;2870;42.680;23.364;2023-08-30T11:49:47;12.30;;;5.90;;
5690;SDS011;2870;42.680;23.364;2023-08-30T11:52:15;11.73;;;7.20;;
5690;SDS011;2870;42.680;23.364;2023-08-30T11:54:42;9.43;;;5.20;;
5690;SDS011;2870;42.680;23.364;2023-08-30T11:57:09;14.03;;;5.53;;
5690;SDS011;2870;42.680;23.364;2023-08-30T11:59:37;10.97;;;6.00;;
5690;SDS011;2870;42.680;23.364;2023-08-30T12:02:04;21.60;;;6.57;;
5690;SDS011;2870;42.680;23.364;2023-08-30T12:04:36;11.30;;;6.23;;
5690;SDS011;2870;42.680;23.364;2023-08-30T12:07:06;10.90;;;5.70;;
5690;SDS011;2870;42.680;23.364;2023-08-30T12:09:33;11.80;;;5.63;;
5690;SDS011;2870;42.680;23.364;2023-08-30T12:12:06;17.73;;;5.73;;
5690;SDS011;2870;42.680;23.364;2023-08-30T12:14:33;14.80;;;6.03;;
5690;SDS011;2870;42.680;23.364;2023-08-30T12:17:01;9.40;;;6.03;;
5690;SDS011;2870;42.680;23.364;2023-08-30T12:19:29;17.20;;;6.90;;
5690;SDS011;2870;42.680;23.364;2023-08-30T12:21:55;17.60;;;6.60;;
5690;SDS011;2870;42.680;23.364;2023-08-30T12:24:22;12.40;;;6.57;;
5690;SDS011;2870;42.680;23.364;2023-08-30T12:26:49;15.33;;;7.37;;
5690;SDS011;2870;42.680;23.364;2023-08-30T12:29:16;12.00;;;6.90;;
5690;SDS011;2870;42.680;23.364;2023-08-30T12:31:42;13.13;;;7.33;;
5690;SDS011;2870;42.680;23.364;2023-08-30T12:34:10;10.03;;;6.07;;
5690;SDS011;2870;42.680;23.364;2023-08-30T12:36:37;11.17;;;5.70;;
5690;SDS011;2870;42.680;23.364;2023-08-30T12:39:04;10.17;;;6.07;;
5690;SDS011;2870;42.680;23.364;2023-08-30T12:41:30;12.33;;;5.77;;
5690;SDS011;2870;42.680;23.364;2023-08-30T12:43:58;12.13;;;6.60;;
5690;SDS011;2870;42.680;23.364;2023-08-30T12:46:24;17.87;;;6.63;;
5690;SDS011;2870;42.680;23.364;2023-08-30T12:48:51;11.20;;;6.20;;
5690;SDS011;2870;42.680;23.364;2023-08-30T12:51:19;10.60;;;5.20;;
5690;SDS011;2870;42.680;23.364;2023-08-30T12:53:46;10.07;;;6.80;;
5690;SDS011;2870;42.680;23.364;2023-08-30T12:56:13;11.10;;;6.70;;
5690;SDS011;2870;42.680;23.364;2023-08-30T12:58:39;9.43;;;6.13;;
5690;SDS011;2870;42.680;23.364;2023-08-30T13:01:06;16.53;;;7.00;;
5690;SDS011;2870;42.680;23.364;2023-08-30T13:03:33;10.57;;;6.13;;
5690;SDS011;2870;42.680;23.364;2023-08-30T13:05:59;12.70;;;6.70;;
5690;SDS011;2870;42.680;23.364;2023-08-30T13:08:28;11.70;;;6.07;;
5690;SDS011;2870;42.680;23.364;2023-08-30T13:10:55;14.47;;;6.13;;
5690;SDS011;2870;42.680;23.364;2023-08-30T13:13:22;12.30;;;6.60;;
5690;SDS011;2870;42.680;23.364;2023-08-30T13:15:49;12.17;;;6.33;;
5690;SDS011;2870;42.680;23.364;2023-08-30T13:18:16;10.00;;;6.50;;
5690;SDS011;2870;42.680;23.364;2023-08-30T13:20:43;9.60;;;5.97;;
5690;SDS011;2870;42.680;23.364;2023-08-30T13:23:10;13.63;;;7.27;;
5690;SDS011;2870;42.680;23.364;2023-08-30T13:25:39;8.37;;;5.67;;
5690;SDS011;2870;42.680;23.364;2023-08-30T13:28:06;11.63;;;5.73;;
5690;SDS011;2870;42.680;23.364;2023-08-30T13:30:33;9.60;;;5.33;;
5690;SDS011;2870;42.680;23.364;2023-08-30T13:33:00;15.40;;;6.23;;
5690;SDS011;2870;42.680;23.364;2023-08-30T13:35:27;38.43;;;10.03;;
5690;SDS011;2870;42.680;23.364;2023-08-30T13:37:53;75.80;;;13.23;;
5690;SDS011;2870;42.680;23.364;2023-08-30T13:40:20;17.93;;;5.60;;
5690;SDS011;2870;42.680;23.364;2023-08-30T13:42:48;13.47;;;5.07;;
5690;SDS011;2870;42.680;23.364;2023-08-30T13:45:15;15.73;;;4.67;;
5690;SDS011;2870;42.680;23.364;2023-08-30T13:47:42;7.77;;;4.40;;
5690;SDS011;2870;42.680;23.364;2023-08-30T13:50:10;10.03;;;4.77;;
5690;SDS011;2870;42.680;23.364;2023-08-30T13:52:36;8.90;;;4.37;;
5690;SDS011;2870;42.680;23.364;2023-08-30T13:55:03;9.47;;;4.07;;
5690;SDS011;2870;42.680;23.364;2023-08-30T13:57:31;11.17;;;5.40;;
5690;SDS011;2870;42.680;23.364;2023-08-30T13:59:59;11.50;;;4.70;;
5690;SDS011;2870;42.680;23.364;2023-08-30T14:02:30;8.53;;;4.50;;
5690;SDS011;2870;42.680;23.364;2023-08-30T14:04:57;17.53;;;5.10;;
5690;SDS011;2870;42.680;23.364;2023-08-30T14:07:24;10.63;;;4.63;;
5690;SDS011;2870;42.680;23.364;2023-08-30T14:09:51;9.13;;;4.07;;
5690;SDS011;2870;42.680;23.364;2023-08-30T14:12:18;11.70;;;4.67;;
5690;SDS011;2870;42.680;23.364;2023-08-30T14:14:45;11.33;;;4.90;;
5690;SDS011;2870;42.680;23.364;2023-08-30T14:17:13;13.83;;;7.30;;
5690;SDS011;2870;42.680;23.364;2023-08-30T14:19:40;13.07;;;6.17;;
5690;SDS011;2870;42.680;23.364;2023-08-30T14:22:06;10.00;;;4.63;;
5690;SDS011;2870;42.680;23.364;2023-08-30T14:24:33;9.50;;;4.57;;
5690;SDS011;2870;42.680;23.364;2023-08-30T14:27:00;8.60;;;3.80;;
5690;SDS011;2870;42.680;23.364;2023-08-30T14:29:27;9.47;;;4.10;;
5690;SDS011;2870;42.680;23.364;2023-08-30T14:31:53;7.77;;;4.50;;
5690;SDS011;2870;42.680;23.364;2023-08-30T14:34:22;11.17;;;4.27;;
5690;SDS011;2870;42.680;23.364;2023-08-30T14:36:48;9.53;;;4.80;;
5690;SDS011;2870;42.680;23.364;2023-08-30T14:39:15;11.40;;;4.90;;
5690;SDS011;2870;42.680;23.364;2023-08-30T14:41:42;8.87;;;3.80;;
5690;SDS011;2870;42.680;23.364;2023-08-30T14:44:09;7.83;;;3.60;;
5690;SDS011;2870;42.680;23.364;2023-08-30T14:46:35;7.70;;;3.40;;
5690;SDS011;2870;42.680;23.364;2023-08-30T14:49:02;6.80;;;3.70;;
5690;SDS011;2870;42.680;23.364;2023-08-30T14:51:30;14.50;;;4.30;;